Portada
METAR-TAF:

METAR-TAF

Aeroports :

Savannakhet, Laos

latitud: 16-33-24N, longitud: 104-45-34E, altitud: 155 m

Observació

L'informe es va fer fa 41 minuts, a les 12:00 UTC
Vent 2 kt del Sud
Temperatura 30°C
Humitat 70%
Pressió 1006 hPa
Visibilitat: 2000 m
Núvols disperses a una alçada de 1600 ft
Cel ennuvolat a una alçada de 9300 ft
calitja

METAR: VLSK 141200Z 18002KT 2000 HZ SCT016 BKN093 30/24 Q1006 NOSIG

Hora: 19:41 (12:41 UTC)

Pronòstic

L'informe es va fer fa 7 hores i 41 minuts, a les 05:00 UTC
Pronòstic vàlid del 14 a les 06 UTC al 15 a les 06 UTC
Vent 4 kt del Sud/Sud-Oest
Visibilitat: 8000 m
Núvols disperses a una alçada de 2000 ft
Núvols disperses a una alçada de 10000 ft

TAF: VLSK 140500Z 1406/1506 20004KT 8000 SCT020 SCT100

Observacions i pronòstics meteorològics de més de 4000 aeroports (METAR i TAF).

Les estacions disponibles són els punts grocs i vermells al mapa.

Posi el ratolí al punt desitjat per veure el nom de l'estació.

Feu clic per veure les observacions i els pronòstics meteorològics.

Per canviar el mapa: feu clic els botons verds amb una creu de color negre per apropar; al botó verd amb un guió per allunyar la imatge; o en les fletxes verdes per a mapes adjacents.


METAR-TAF: